Accueil
METAR-TAF:

METAR-TAF

Aéroports :

Ambae, Vanuatu

latitude: 15-18-24S, longitude: 167-58-02E, altitude: 51 m

Observation

Le bulletin a été fait il y a 42 minutes, à 09:00 UTC
Vent 4 kt de sud
Température 28°C
Humidité 94%
Pression 1006 hPa
Visibilité 10 km ou plus
Nuages épars à une hauteur de 2000 ft

METAR: NVSG 240900Z 17004KT 9999 SCT020 28/27 Q1006 RMK NIL

Heure: 20:42 (09:42 UTC)

Prévision

Le bulletin a été fait il y a 5 heures et 12 minutes, à 04:30 UTC
Prévision valable du 24 à 06 UTC au 25 à 06 UTC
Vent 6 kt de est
Visibilité 10 km ou plus
Nuages épars à une hauteur de 2000 ft

TAF: NVSG 240430Z 2406/2506 10006KT 9999 SCT020

Observations et prévisions météorologiques de plus de 4000 aéroports (messages METAR et TAF).

Les stations disponibles sont représentées par des disques jaunes et rouges sur la carte.

Passer la souris dessus pour voir le nom de la station.

Cliquer dessus pour voir les observations et prévisions météorologiques.

Pour changer de carte: cliquez sur les boutons verts avec une croix noire pour zoomer, sur le bouton vert avec un tiret pour effectuer un zoom arrière, ou sur les flèches vertes pour les cartes adjacentes.


METAR-TAF: